Weather reports worldwide

Advertisment
Formigueres, France (7737): temperature & dewpoint: 20.09.2020 12:00:00 - 26.09.2020 12:00:00 (CEST)Formigueres, France (7737): wind speed & gusts: 20.09.2020 12:00:00 - 26.09.2020 12:00:00 (CEST)Formigueres, France (7737): wind direction: 20.09.2020 12:00:00 - 26.09.2020 12:00:00 (CEST)Formigueres, France (7737): precipitation: 20.09.2020 12:00:00 - 26.09.2020 12:00:00 (CEST)
Date & Time tt [°C] td [°C] ff [km/h] ff [kn] fx [km/h] fx [kn] dd rr [mm]
26.09.2020 12:00:00 4,7 2,4 29 16 77 41 N 0,0
26.09.2020 11:00:00 3,3 1,8 32 18 76 41 N 0,0
26.09.2020 10:00:00 2,5 1,6 26 14 86 47 N 0,0
26.09.2020 09:00:00 2,2 1,8 37 20 81 44 N 0,2
26.09.2020 08:00:00 1,8 0,9 39 21 78 42 N 0,0
26.09.2020 07:00:00 1,4 0,8 36 19 82 44 NNE 0,0
26.09.2020 06:00:00 1,0 0,6 32 17 74 40 NNE 0,0
26.09.2020 05:00:00 1,1 0,2 38 21 68 37 N 0,2
26.09.2020 04:00:00 1,2 -0,6 37 20 87 47 N 0,0
26.09.2020 03:00:00 1,6 -0,7 34 19 72 39 N 0,2
26.09.2020 02:00:00 1,8 -1,5 25 14 86 47 N 0,0
26.09.2020 01:00:00 1,9 -1,5 36 19 88 48 N 0,4
26.09.2020 00:00:00 1,5 -0,1 19 10 84 46 N 0,4
25.09.2020 23:00:00 1,6 0,3 24 13 63 34 N 0,8
25.09.2020 22:00:00 1,4 0,4 24 13 62 34 N 0,6
25.09.2020 21:00:00 1,2 0,2 12 6 53 29 N 0,8
25.09.2020 20:00:00 1,1 -0,2 18 10 61 33 N 2,0
25.09.2020 19:00:00 0,6 0,0 8 5 22 12 NNE 1,6
25.09.2020 18:00:00 0,4 0,0 10 5 46 25 N 2,6
25.09.2020 17:00:00 0,9 0,3 4 2 22 12 SW 2,0
25.09.2020 16:00:00 2,5 0,1 20 11 55 30 WNW 0,4
25.09.2020 15:00:00 3,0 0,2 11 6 54 29 W 0,6
25.09.2020 14:00:00 3,5 1,0 10 5 39 21 WNW 0,4
25.09.2020 13:00:00 2,9 0,8 10 5 43 23 WNW 0,6
25.09.2020 12:00:00 3,3 0,7 16 9 70 38 WNW 0,4
25.09.2020 11:00:00 4,3 -0,3 20 11 56 31 NW 0,0
25.09.2020 10:00:00 4,1 0,4 11 6 76 41 WSW 0,2
25.09.2020 09:00:00 3,2 0,4 15 8 58 32 W 0,0
25.09.2020 08:00:00 2,3 0,5 13 7 35 19 SSE 0,2
25.09.2020 07:00:00 2,1 1,8 19 11 37 20 NNE 0,2
25.09.2020 06:00:00 2,4 2,1 21 11 55 30 N 0,0
25.09.2020 05:00:00 3,2 2,8 27 14 55 30 N 0,2
25.09.2020 04:00:00 5,1 5,0 17 9 42 23 N 0,0
25.09.2020 03:00:00 6,0 5,9 17 9 36 19 NNE 0,0
25.09.2020 02:00:00 7,2 7,1 6 3 19 10 NNW 0,0
25.09.2020 01:00:00 6,4 5,8 4 2 14 8 WSW 0,0
25.09.2020 00:00:00 7,2 6,1 6 4 12 7 W 0,0
24.09.2020 23:00:00 8,3 7,4 4 2 10 5 W 0,0
24.09.2020 22:00:00 9,3 9,0 2 1 11 6 WNW 0,0
24.09.2020 21:00:00 9,4 9,1 3 1 21 11 N 0,0
24.09.2020 20:00:00 9,8 8,9 5 3 17 9 NE 0,0
24.09.2020 19:00:00 - - - - - - - -
24.09.2020 18:00:00 15,1 6,6 14 8 30 16 SW 0,0
24.09.2020 17:00:00 14,2 10,6 8 5 32 18 NE 0,0
24.09.2020 16:00:00 15,3 6,3 18 10 41 22 SSW 0,0
24.09.2020 15:00:00 16,1 4,8 18 10 53 29 SSW 0,0
24.09.2020 14:00:00 18,5 7,0 27 15 49 27 SSW 0,0
24.09.2020 13:00:00 16,3 8,0 14 8 45 24 S 0,0
24.09.2020 12:00:00 16,5 7,9 20 11 39 21 S 0,0
24.09.2020 11:00:00 15,4 10,0 15 8 36 19 S 0,0
24.09.2020 10:00:00 13,2 9,6 19 10 32 17 S 0,0
24.09.2020 09:00:00 11,5 9,6 6 3 20 11 S 0,0
24.09.2020 08:00:00 10,3 8,4 12 7 22 12 S 0,0
24.09.2020 07:00:00 9,8 7,7 8 4 25 13 SSW 0,0
24.09.2020 06:00:00 9,3 7,6 5 3 32 17 WNW 0,0
24.09.2020 05:00:00 6,8 6,5 5 3 11 6 W 0,0
24.09.2020 04:00:00 8,0 7,4 6 3 16 9 W 0,0
24.09.2020 03:00:00 8,7 7,6 8 5 16 9 WSW 0,0
24.09.2020 02:00:00 9,1 8,6 6 3 14 8 SSW 0,0
24.09.2020 01:00:00 9,8 8,9 4 2 15 8 WSW 0,0
24.09.2020 00:00:00 9,7 9,6 5 3 11 6 WSW 0,0
23.09.2020 23:00:00 - - - - - - - -
23.09.2020 22:00:00 10,4 9,0 8 4 19 11 W 0,0
23.09.2020 21:00:00 10,6 9,0 11 6 16 9 WSW 0,0
23.09.2020 20:00:00 11,8 9,7 2 1 14 8 ESE 0,0
23.09.2020 19:00:00 14,1 10,3 11 6 25 13 N 0,0
23.09.2020 18:00:00 16,5 11,2 14 7 31 17 N 0,0
23.09.2020 17:00:00 17,7 11,5 9 5 37 20 N 0,0
23.09.2020 16:00:00 18,6 8,5 23 12 42 23 SSW 0,0
23.09.2020 15:00:00 18,7 9,2 22 12 40 22 SSW 0,0
23.09.2020 14:00:00 16,1 7,3 14 8 36 20 S 0,0
23.09.2020 13:00:00 17,6 10,0 16 8 33 18 S 0,0
23.09.2020 12:00:00 16,0 9,9 16 9 34 18 S 0,0
23.09.2020 11:00:00 14,6 9,8 14 7 28 15 SSE 0,0
23.09.2020 10:00:00 10,8 9,6 4 2 10 6 NE 0,0
23.09.2020 09:00:00 7,6 6,7 11 6 20 11 W 0,0
23.09.2020 08:00:00 4,7 4,3 12 7 21 11 W 0,0
23.09.2020 07:00:00 5,0 4,4 14 8 22 12 W 0,0
23.09.2020 06:00:00 5,4 5,0 14 7 21 11 W 0,0
23.09.2020 05:00:00 5,9 5,3 13 7 20 11 WSW 0,0
23.09.2020 04:00:00 6,5 6,1 13 7 21 11 WSW 0,0
23.09.2020 03:00:00 7,0 6,6 11 6 18 10 W 0,0
23.09.2020 02:00:00 8,0 7,9 5 3 10 5 W 0,0
23.09.2020 01:00:00 9,1 8,8 2 1 11 6 SSW 0,0
23.09.2020 00:00:00 9,6 9,5 4 2 8 4 SSW 1,2
22.09.2020 23:00:00 9,8 9,5 3 2 6 4 ESE 2,2
22.09.2020 22:00:00 9,9 9,6 3 2 7 4 SSE 0,0
22.09.2020 21:00:00 9,7 9,4 3 1 28 15 WNW 0,2
22.09.2020 20:00:00 10,3 9,8 15 8 26 14 N 1,0
22.09.2020 19:00:00 - - - - - - - -
22.09.2020 18:00:00 12,2 10,4 14 8 24 13 NNE 0,0
22.09.2020 17:00:00 13,1 11,2 15 8 25 14 N 0,0
22.09.2020 16:00:00 14,0 12,0 13 7 24 13 NNE 0,0
22.09.2020 15:00:00 14,6 11,2 8 4 21 11 NNE 0,0
22.09.2020 14:00:00 13,3 11,0 8 4 17 9 NNE 0,0
22.09.2020 13:00:00 12,0 10,1 10 6 26 14 NNE 0,0
22.09.2020 12:00:00 12,7 10,2 13 7 23 12 NNE 0,0
22.09.2020 11:00:00 14,5 10,5 8 4 16 9 ENE 0,0
22.09.2020 10:00:00 11,5 9,9 4 2 9 5 NE 0,0
22.09.2020 09:00:00 8,3 8,3 3 2 11 6 SE 0,0
22.09.2020 08:00:00 7,0 6,6 9 5 13 7 WSW 0,0
22.09.2020 07:00:00 8,3 8,2 3 1 10 5 WSW 0,0
22.09.2020 06:00:00 8,6 8,5 5 3 10 5 WNW 0,0
22.09.2020 05:00:00 8,5 8,4 3 2 10 5 WNW 0,0
22.09.2020 04:00:00 9,0 8,9 3 2 6 3 E 0,0
22.09.2020 03:00:00 9,3 9,2 0 0 8 4 N 0,2
22.09.2020 02:00:00 9,4 9,1 4 2 8 4 SW 0,0
22.09.2020 01:00:00 9,6 9,1 2 1 16 9 WSW 0,0
22.09.2020 00:00:00 9,8 9,7 9 5 19 10 N 0,0
21.09.2020 23:00:00 9,7 9,4 7 4 16 8 NNE 0,0
21.09.2020 22:00:00 10,5 10,3 7 4 16 9 N 0,0
21.09.2020 21:00:00 10,4 10,1 3 1 6 4 SW 0,0
21.09.2020 20:00:00 10,8 10,2 0 0 7 4 N 0,0
21.09.2020 19:00:00 11,9 11,0 0 0 7 4 N 0,2
21.09.2020 18:00:00 11,9 10,6 2 1 9 5 WSW 0,2
21.09.2020 17:00:00 11,8 10,5 5 3 11 6 SSW 0,2
21.09.2020 16:00:00 11,3 10,5 2 1 11 6 ESE 0,8
21.09.2020 15:00:00 11,0 10,7 8 4 22 12 N 3,4
21.09.2020 14:00:00 11,5 11,0 10 6 23 12 NNE 1,2
21.09.2020 13:00:00 11,4 11,2 8 4 25 13 NNE 7,7
21.09.2020 12:00:00 12,9 11,0 10 5 21 11 NNE 0,0
21.09.2020 11:00:00 11,6 11,0 8 5 15 8 NNE 0,0
21.09.2020 10:00:00 10,5 10,3 4 2 9 5 ENE 0,0
21.09.2020 09:00:00 9,4 9,4 2 1 10 5 N 0,0
21.09.2020 08:00:00 8,6 8,6 2 1 11 6 W 0,0
21.09.2020 07:00:00 8,6 8,5 5 3 8 4 S 0,0
21.09.2020 06:00:00 9,5 9,4 3 2 6 4 SSW 0,0
21.09.2020 05:00:00 9,9 9,9 3 2 9 5 SE 0,0
21.09.2020 04:00:00 9,9 9,9 6 3 19 10 NNW 0,0
21.09.2020 03:00:00 9,9 9,7 11 6 21 11 N 0,6
21.09.2020 02:00:00 10,3 10,1 13 7 26 14 NNE 0,6
21.09.2020 01:00:00 10,8 10,6 0 0 5 3 N 0,0
21.09.2020 00:00:00 10,9 10,7 0 0 6 3 N 0,0
20.09.2020 23:00:00 10,8 10,3 2 1 13 7 NNE 0,0
20.09.2020 22:00:00 11,0 10,7 7 4 17 9 N 0,2
20.09.2020 21:00:00 11,2 10,9 3 1 11 6 NE 0,0
20.09.2020 20:00:00 11,4 10,8 6 3 14 8 S 0,4
20.09.2020 19:00:00 12,4 11,6 3 1 11 6 S 0,2
20.09.2020 18:00:00 12,2 11,4 4 2 9 5 SW 2,4
20.09.2020 17:00:00 12,6 11,3 6 4 17 9 SE 1,6
20.09.2020 16:00:00 - - - - - - - -
20.09.2020 15:00:00 15,0 10,2 12 6 24 13 NNE 0,0
20.09.2020 14:00:00 15,7 10,2 14 8 29 15 NNE 0,0
20.09.2020 13:00:00 17,5 10,6 11 6 29 16 NNE 0,0
20.09.2020 12:00:00 15,4 10,4 16 9 31 17 NNE 0,0

tt = temperature
td = dewpoint
ff = wind speed
fx = gusts
dd = wind direction
rr = precipitation

Next stations